sensor_id;sensor_type;location;lat;lon;timestamp;P1;durP1;ratioP1;P2;durP2;ratioP2
21505;SDS011;10914;48.886;9.394;2023-11-21T00:01:46;34.65;;;32.80;;
21505;SDS011;10914;48.886;9.394;2023-11-21T00:04:11;29.35;;;27.65;;
21505;SDS011;10914;48.886;9.394;2023-11-21T00:06:36;30.03;;;28.30;;
21505;SDS011;10914;48.886;9.394;2023-11-21T00:09:01;29.67;;;27.88;;
21505;SDS011;10914;48.886;9.394;2023-11-21T00:11:27;42.35;;;39.83;;
21505;SDS011;10914;48.886;9.394;2023-11-21T00:13:53;37.45;;;35.33;;
21505;SDS011;10914;48.886;9.394;2023-11-21T00:16:18;29.98;;;27.95;;
21505;SDS011;10914;48.886;9.394;2023-11-21T00:18:44;29.17;;;27.38;;
21505;SDS011;10914;48.886;9.394;2023-11-21T00:21:10;29.88;;;27.63;;
21505;SDS011;10914;48.886;9.394;2023-11-21T00:23:37;29.90;;;28.20;;
21505;SDS011;10914;48.886;9.394;2023-11-21T00:26:03;28.85;;;27.17;;
21505;SDS011;10914;48.886;9.394;2023-11-21T00:28:29;27.90;;;26.10;;
21505;SDS011;10914;48.886;9.394;2023-11-21T00:30:55;30.20;;;28.55;;
21505;SDS011;10914;48.886;9.394;2023-11-21T00:33:20;38.70;;;36.20;;
21505;SDS011;10914;48.886;9.394;2023-11-21T00:35:45;33.17;;;30.90;;
21505;SDS011;10914;48.886;9.394;2023-11-21T00:38:10;28.20;;;26.55;;
21505;SDS011;10914;48.886;9.394;2023-11-21T00:40:36;30.02;;;27.75;;
21505;SDS011;10914;48.886;9.394;2023-11-21T00:43:01;29.80;;;27.83;;
21505;SDS011;10914;48.886;9.394;2023-11-21T00:45:26;31.55;;;29.80;;
21505;SDS011;10914;48.886;9.394;2023-11-21T00:47:51;31.23;;;29.23;;
21505;SDS011;10914;48.886;9.394;2023-11-21T00:50:17;39.80;;;37.17;;
21505;SDS011;10914;48.886;9.394;2023-11-21T00:52:42;43.10;;;40.78;;
21505;SDS011;10914;48.886;9.394;2023-11-21T00:55:07;39.78;;;37.40;;
21505;SDS011;10914;48.886;9.394;2023-11-21T00:57:33;36.20;;;34.05;;
21505;SDS011;10914;48.886;9.394;2023-11-21T00:59:59;39.63;;;37.20;;
21505;SDS011;10914;48.886;9.394;2023-11-21T01:02:24;48.70;;;46.00;;
21505;SDS011;10914;48.886;9.394;2023-11-21T01:04:50;38.42;;;35.95;;
21505;SDS011;10914;48.886;9.394;2023-11-21T01:07:15;47.78;;;45.28;;
21505;SDS011;10914;48.886;9.394;2023-11-21T01:09:41;31.10;;;29.42;;
21505;SDS011;10914;48.886;9.394;2023-11-21T01:12:06;33.92;;;31.58;;
21505;SDS011;10914;48.886;9.394;2023-11-21T01:14:31;41.72;;;39.30;;
21505;SDS011;10914;48.886;9.394;2023-11-21T01:16:57;33.25;;;31.17;;
21505;SDS011;10914;48.886;9.394;2023-11-21T01:19:22;43.47;;;41.17;;
21505;SDS011;10914;48.886;9.394;2023-11-21T01:21:47;42.13;;;39.60;;
21505;SDS011;10914;48.886;9.394;2023-11-21T01:24:13;43.53;;;41.00;;
21505;SDS011;10914;48.886;9.394;2023-11-21T01:26:38;41.70;;;39.22;;
21505;SDS011;10914;48.886;9.394;2023-11-21T01:29:03;28.30;;;26.67;;
21505;SDS011;10914;48.886;9.394;2023-11-21T01:31:29;28.73;;;26.98;;
21505;SDS011;10914;48.886;9.394;2023-11-21T01:33:55;31.75;;;29.90;;
21505;SDS011;10914;48.886;9.394;2023-11-21T01:36:20;29.17;;;27.00;;
21505;SDS011;10914;48.886;9.394;2023-11-21T01:38:46;35.00;;;32.83;;
21505;SDS011;10914;48.886;9.394;2023-11-21T01:41:13;34.35;;;31.95;;
21505;SDS011;10914;48.886;9.394;2023-11-21T01:43:38;39.58;;;36.85;;
21505;SDS011;10914;48.886;9.394;2023-11-21T01:46:03;32.35;;;30.23;;
21505;SDS011;10914;48.886;9.394;2023-11-21T01:48:31;28.60;;;26.67;;
21505;SDS011;10914;48.886;9.394;2023-11-21T01:50:56;30.33;;;28.23;;
21505;SDS011;10914;48.886;9.394;2023-11-21T01:53:23;33.53;;;31.27;;
21505;SDS011;10914;48.886;9.394;2023-11-21T01:55:49;37.28;;;34.83;;
21505;SDS011;10914;48.886;9.394;2023-11-21T01:58:14;33.90;;;31.58;;
21505;SDS011;10914;48.886;9.394;2023-11-21T02:00:41;31.25;;;29.33;;
21505;SDS011;10914;48.886;9.394;2023-11-21T02:03:06;33.42;;;31.52;;
21505;SDS011;10914;48.886;9.394;2023-11-21T02:05:32;32.13;;;30.23;;
21505;SDS011;10914;48.886;9.394;2023-11-21T02:07:57;30.63;;;28.67;;
21505;SDS011;10914;48.886;9.394;2023-11-21T02:10:22;37.80;;;35.47;;
21505;SDS011;10914;48.886;9.394;2023-11-21T02:12:48;39.05;;;36.88;;
21505;SDS011;10914;48.886;9.394;2023-11-21T02:15:15;36.55;;;34.53;;
21505;SDS011;10914;48.886;9.394;2023-11-21T02:17:42;34.67;;;32.63;;
21505;SDS011;10914;48.886;9.394;2023-11-21T02:20:09;36.10;;;34.08;;
21505;SDS011;10914;48.886;9.394;2023-11-21T02:22:40;32.55;;;30.73;;
21505;SDS011;10914;48.886;9.394;2023-11-21T02:25:07;32.47;;;30.65;;
21505;SDS011;10914;48.886;9.394;2023-11-21T02:27:32;34.55;;;32.65;;
21505;SDS011;10914;48.886;9.394;2023-11-21T02:29:58;40.90;;;38.35;;
21505;SDS011;10914;48.886;9.394;2023-11-21T02:32:23;39.20;;;36.28;;
21505;SDS011;10914;48.886;9.394;2023-11-21T02:34:51;31.85;;;30.05;;
21505;SDS011;10914;48.886;9.394;2023-11-21T02:37:16;48.78;;;46.10;;
21505;SDS011;10914;48.886;9.394;2023-11-21T02:39:41;46.33;;;43.92;;
21505;SDS011;10914;48.886;9.394;2023-11-21T02:42:06;37.33;;;35.10;;
21505;SDS011;10914;48.886;9.394;2023-11-21T02:44:31;40.15;;;37.85;;
21505;SDS011;10914;48.886;9.394;2023-11-21T02:46:58;38.70;;;36.63;;
21505;SDS011;10914;48.886;9.394;2023-11-21T02:49:23;35.90;;;34.13;;
21505;SDS011;10914;48.886;9.394;2023-11-21T02:51:48;31.80;;;30.10;;
21505;SDS011;10914;48.886;9.394;2023-11-21T02:54:14;30.38;;;28.73;;
21505;SDS011;10914;48.886;9.394;2023-11-21T02:56:39;31.00;;;29.30;;
21505;SDS011;10914;48.886;9.394;2023-11-21T02:59:05;43.80;;;41.38;;
21505;SDS011;10914;48.886;9.394;2023-11-21T03:01:30;41.55;;;39.47;;
21505;SDS011;10914;48.886;9.394;2023-11-21T03:03:56;50.65;;;48.13;;
21505;SDS011;10914;48.886;9.394;2023-11-21T03:06:21;38.42;;;36.15;;
21505;SDS011;10914;48.886;9.394;2023-11-21T03:08:47;38.42;;;36.55;;
21505;SDS011;10914;48.886;9.394;2023-11-21T03:11:12;42.65;;;40.45;;
21505;SDS011;10914;48.886;9.394;2023-11-21T03:13:38;36.30;;;34.33;;
21505;SDS011;10914;48.886;9.394;2023-11-21T03:16:04;35.05;;;33.08;;
21505;SDS011;10914;48.886;9.394;2023-11-21T03:18:29;40.88;;;38.53;;
21505;SDS011;10914;48.886;9.394;2023-11-21T03:20:55;38.75;;;36.63;;
21505;SDS011;10914;48.886;9.394;2023-11-21T03:23:20;39.08;;;37.08;;
21505;SDS011;10914;48.886;9.394;2023-11-21T03:25:45;45.80;;;43.33;;
21505;SDS011;10914;48.886;9.394;2023-11-21T03:28:11;41.08;;;38.92;;
21505;SDS011;10914;48.886;9.394;2023-11-21T03:30:36;32.67;;;30.98;;
21505;SDS011;10914;48.886;9.394;2023-11-21T03:33:01;35.58;;;33.72;;
21505;SDS011;10914;48.886;9.394;2023-11-21T03:35:26;48.53;;;46.25;;
21505;SDS011;10914;48.886;9.394;2023-11-21T03:37:53;49.50;;;46.70;;
21505;SDS011;10914;48.886;9.394;2023-11-21T03:40:18;37.22;;;35.33;;
21505;SDS011;10914;48.886;9.394;2023-11-21T03:42:43;37.05;;;35.22;;
21505;SDS011;10914;48.886;9.394;2023-11-21T03:45:09;37.13;;;35.00;;
21505;SDS011;10914;48.886;9.394;2023-11-21T03:47:34;30.85;;;29.27;;
21505;SDS011;10914;48.886;9.394;2023-11-21T03:49:59;32.58;;;31.00;;
21505;SDS011;10914;48.886;9.394;2023-11-21T03:52:25;47.17;;;44.80;;
21505;SDS011;10914;48.886;9.394;2023-11-21T03:54:50;38.17;;;36.28;;
21505;SDS011;10914;48.886;9.394;2023-11-21T03:57:15;37.65;;;35.80;;
21505;SDS011;10914;48.886;9.394;2023-11-21T03:59:41;31.92;;;30.38;;
21505;SDS011;10914;48.886;9.394;2023-11-21T04:02:06;35.90;;;34.13;;
21505;SDS011;10914;48.886;9.394;2023-11-21T04:04:32;34.05;;;32.22;;
21505;SDS011;10914;48.886;9.394;2023-11-21T04:06:58;33.95;;;32.20;;
21505;SDS011;10914;48.886;9.394;2023-11-21T04:09:23;34.05;;;32.22;;
21505;SDS011;10914;48.886;9.394;2023-11-21T04:11:50;31.30;;;29.48;;
21505;SDS011;10914;48.886;9.394;2023-11-21T04:14:15;33.58;;;31.83;;
21505;SDS011;10914;48.886;9.394;2023-11-21T04:16:40;31.77;;;30.25;;
21505;SDS011;10914;48.886;9.394;2023-11-21T04:19:06;39.85;;;37.95;;
21505;SDS011;10914;48.886;9.394;2023-11-21T04:21:31;32.95;;;31.05;;
21505;SDS011;10914;48.886;9.394;2023-11-21T04:23:58;33.88;;;32.15;;
21505;SDS011;10914;48.886;9.394;2023-11-21T04:26:23;32.17;;;30.35;;
21505;SDS011;10914;48.886;9.394;2023-11-21T04:28:48;33.53;;;31.70;;
21505;SDS011;10914;48.886;9.394;2023-11-21T04:31:14;42.65;;;40.60;;
21505;SDS011;10914;48.886;9.394;2023-11-21T04:33:40;51.28;;;48.72;;
21505;SDS011;10914;48.886;9.394;2023-11-21T04:36:05;50.13;;;47.67;;
21505;SDS011;10914;48.886;9.394;2023-11-21T04:38:30;40.45;;;38.35;;
21505;SDS011;10914;48.886;9.394;2023-11-21T04:40:56;35.38;;;33.03;;
21505;SDS011;10914;48.886;9.394;2023-11-21T04:43:21;38.53;;;36.63;;
21505;SDS011;10914;48.886;9.394;2023-11-21T04:45:46;38.72;;;36.75;;
21505;SDS011;10914;48.886;9.394;2023-11-21T04:48:11;37.78;;;36.03;;
21505;SDS011;10914;48.886;9.394;2023-11-21T04:50:37;35.88;;;34.08;;
21505;SDS011;10914;48.886;9.394;2023-11-21T04:53:02;34.03;;;32.22;;
21505;SDS011;10914;48.886;9.394;2023-11-21T04:55:28;37.47;;;35.65;;
21505;SDS011;10914;48.886;9.394;2023-11-21T04:57:53;34.80;;;33.15;;
21505;SDS011;10914;48.886;9.394;2023-11-21T05:00:18;35.47;;;33.70;;
21505;SDS011;10914;48.886;9.394;2023-11-21T05:02:44;38.25;;;36.20;;
21505;SDS011;10914;48.886;9.394;2023-11-21T05:05:10;33.90;;;32.03;;
21505;SDS011;10914;48.886;9.394;2023-11-21T05:07:35;41.20;;;39.22;;
21505;SDS011;10914;48.886;9.394;2023-11-21T05:10:01;37.63;;;35.63;;
21505;SDS011;10914;48.886;9.394;2023-11-21T05:12:31;35.42;;;33.58;;
21505;SDS011;10914;48.886;9.394;2023-11-21T05:15:02;32.13;;;30.63;;
21505;SDS011;10914;48.886;9.394;2023-11-21T05:17:32;36.63;;;34.65;;
21505;SDS011;10914;48.886;9.394;2023-11-21T05:19:57;32.67;;;31.00;;
21505;SDS011;10914;48.886;9.394;2023-11-21T05:22:22;30.08;;;28.63;;
21505;SDS011;10914;48.886;9.394;2023-11-21T05:24:48;33.70;;;31.83;;
21505;SDS011;10914;48.886;9.394;2023-11-21T05:27:13;34.53;;;32.53;;
21505;SDS011;10914;48.886;9.394;2023-11-21T05:29:38;47.58;;;45.15;;
21505;SDS011;10914;48.886;9.394;2023-11-21T05:32:03;43.15;;;40.97;;
21505;SDS011;10914;48.886;9.394;2023-11-21T05:34:29;31.05;;;29.27;;
21505;SDS011;10914;48.886;9.394;2023-11-21T05:36:54;29.23;;;27.80;;
21505;SDS011;10914;48.886;9.394;2023-11-21T05:39:19;28.48;;;27.13;;
21505;SDS011;10914;48.886;9.394;2023-11-21T05:41:45;27.40;;;25.90;;
21505;SDS011;10914;48.886;9.394;2023-11-21T05:44:11;30.02;;;28.63;;
21505;SDS011;10914;48.886;9.394;2023-11-21T05:46:37;31.55;;;29.85;;
21505;SDS011;10914;48.886;9.394;2023-11-21T05:49:02;34.30;;;32.50;;
21505;SDS011;10914;48.886;9.394;2023-11-21T05:51:27;31.65;;;30.00;;
21505;SDS011;10914;48.886;9.394;2023-11-21T05:53:53;29.88;;;28.38;;
21505;SDS011;10914;48.886;9.394;2023-11-21T05:56:18;32.97;;;31.27;;
21505;SDS011;10914;48.886;9.394;2023-11-21T05:58:43;32.67;;;31.13;;
21505;SDS011;10914;48.886;9.394;2023-11-21T06:01:09;34.05;;;32.35;;
21505;SDS011;10914;48.886;9.394;2023-11-21T06:03:37;39.90;;;37.83;;
21505;SDS011;10914;48.886;9.394;2023-11-21T06:06:03;40.47;;;38.58;;
21505;SDS011;10914;48.886;9.394;2023-11-21T06:08:29;36.05;;;34.15;;
21505;SDS011;10914;48.886;9.394;2023-11-21T06:10:54;39.10;;;37.20;;
21505;SDS011;10914;48.886;9.394;2023-11-21T06:13:20;33.22;;;31.60;;
21505;SDS011;10914;48.886;9.394;2023-11-21T06:15:49;33.22;;;31.48;;
21505;SDS011;10914;48.886;9.394;2023-11-21T06:18:14;32.60;;;30.90;;
21505;SDS011;10914;48.886;9.394;2023-11-21T06:20:40;35.28;;;33.53;;
21505;SDS011;10914;48.886;9.394;2023-11-21T06:23:05;38.22;;;36.35;;
21505;SDS011;10914;48.886;9.394;2023-11-21T06:25:31;32.45;;;30.95;;
21505;SDS011;10914;48.886;9.394;2023-11-21T06:28:01;44.40;;;42.08;;
21505;SDS011;10914;48.886;9.394;2023-11-21T06:30:26;38.00;;;36.03;;
21505;SDS011;10914;48.886;9.394;2023-11-21T06:32:51;32.90;;;31.30;;
21505;SDS011;10914;48.886;9.394;2023-11-21T06:35:17;34.00;;;32.45;;
21505;SDS011;10914;48.886;9.394;2023-11-21T06:37:42;38.92;;;36.95;;
21505;SDS011;10914;48.886;9.394;2023-11-21T06:40:12;34.90;;;33.08;;
21505;SDS011;10914;48.886;9.394;2023-11-21T06:42:40;41.47;;;39.38;;
21505;SDS011;10914;48.886;9.394;2023-11-21T06:45:06;39.58;;;37.42;;
21505;SDS011;10914;48.886;9.394;2023-11-21T06:47:31;37.88;;;35.97;;
21505;SDS011;10914;48.886;9.394;2023-11-21T06:49:57;33.78;;;32.17;;
21505;SDS011;10914;48.886;9.394;2023-11-21T06:52:22;39.55;;;37.58;;
21505;SDS011;10914;48.886;9.394;2023-11-21T06:54:48;38.50;;;36.58;;
21505;SDS011;10914;48.886;9.394;2023-11-21T06:57:16;36.83;;;34.88;;
21505;SDS011;10914;48.886;9.394;2023-11-21T06:59:42;30.63;;;29.10;;
21505;SDS011;10914;48.886;9.394;2023-11-21T07:02:07;39.05;;;37.25;;
21505;SDS011;10914;48.886;9.394;2023-11-21T07:04:33;39.55;;;37.53;;
21505;SDS011;10914;48.886;9.394;2023-11-21T07:06:58;32.90;;;31.08;;
21505;SDS011;10914;48.886;9.394;2023-11-21T07:09:23;33.75;;;31.98;;
21505;SDS011;10914;48.886;9.394;2023-11-21T07:11:50;31.92;;;30.33;;
21505;SDS011;10914;48.886;9.394;2023-11-21T07:14:16;39.67;;;37.75;;
21505;SDS011;10914;48.886;9.394;2023-11-21T07:16:44;46.20;;;43.95;;
21505;SDS011;10914;48.886;9.394;2023-11-21T07:19:10;48.13;;;45.85;;
21505;SDS011;10914;48.886;9.394;2023-11-21T07:21:37;46.05;;;43.80;;
21505;SDS011;10914;48.886;9.394;2023-11-21T07:24:03;48.72;;;46.42;;
21505;SDS011;10914;48.886;9.394;2023-11-21T07:26:28;44.72;;;42.58;;
21505;SDS011;10914;48.886;9.394;2023-11-21T07:28:53;39.05;;;37.13;;
21505;SDS011;10914;48.886;9.394;2023-11-21T07:31:19;42.42;;;40.42;;
21505;SDS011;10914;48.886;9.394;2023-11-21T07:33:44;43.33;;;41.13;;
21505;SDS011;10914;48.886;9.394;2023-11-21T07:36:12;37.60;;;35.70;;
21505;SDS011;10914;48.886;9.394;2023-11-21T07:38:37;36.70;;;34.72;;
21505;SDS011;10914;48.886;9.394;2023-11-21T07:41:03;33.63;;;31.88;;
21505;SDS011;10914;48.886;9.394;2023-11-21T07:43:28;35.20;;;33.45;;
21505;SDS011;10914;48.886;9.394;2023-11-21T07:45:59;35.72;;;34.00;;
21505;SDS011;10914;48.886;9.394;2023-11-21T07:48:25;34.03;;;32.42;;
21505;SDS011;10914;48.886;9.394;2023-11-21T07:50:50;30.20;;;28.80;;
21505;SDS011;10914;48.886;9.394;2023-11-21T07:53:15;28.77;;;27.27;;
21505;SDS011;10914;48.886;9.394;2023-11-21T07:55:41;27.98;;;26.38;;
21505;SDS011;10914;48.886;9.394;2023-11-21T07:58:07;28.52;;;27.23;;
21505;SDS011;10914;48.886;9.394;2023-11-21T08:00:32;29.92;;;28.52;;
21505;SDS011;10914;48.886;9.394;2023-11-21T08:02:58;28.05;;;26.70;;
21505;SDS011;10914;48.886;9.394;2023-11-21T08:05:23;29.02;;;27.50;;
21505;SDS011;10914;48.886;9.394;2023-11-21T08:07:49;27.40;;;26.08;;
21505;SDS011;10914;48.886;9.394;2023-11-21T08:10:15;26.08;;;24.75;;
21505;SDS011;10914;48.886;9.394;2023-11-21T08:12:41;26.13;;;24.73;;
21505;SDS011;10914;48.886;9.394;2023-11-21T08:15:07;25.70;;;24.20;;
21505;SDS011;10914;48.886;9.394;2023-11-21T08:17:34;28.48;;;26.98;;
21505;SDS011;10914;48.886;9.394;2023-11-21T08:20:00;25.70;;;24.40;;
21505;SDS011;10914;48.886;9.394;2023-11-21T08:22:25;25.20;;;23.90;;
21505;SDS011;10914;48.886;9.394;2023-11-21T08:24:50;25.10;;;23.73;;
21505;SDS011;10914;48.886;9.394;2023-11-21T08:27:15;24.98;;;23.58;;
21505;SDS011;10914;48.886;9.394;2023-11-21T08:29:41;25.15;;;23.75;;
21505;SDS011;10914;48.886;9.394;2023-11-21T08:32:07;24.98;;;23.42;;
21505;SDS011;10914;48.886;9.394;2023-11-21T08:34:32;25.77;;;24.20;;
21505;SDS011;10914;48.886;9.394;2023-11-21T08:36:57;25.33;;;24.02;;
21505;SDS011;10914;48.886;9.394;2023-11-21T08:39:22;24.10;;;22.77;;
21505;SDS011;10914;48.886;9.394;2023-11-21T08:41:49;25.13;;;23.73;;
21505;SDS011;10914;48.886;9.394;2023-11-21T08:44:15;24.77;;;23.48;;
21505;SDS011;10914;48.886;9.394;2023-11-21T08:46:43;24.77;;;23.13;;
21505;SDS011;10914;48.886;9.394;2023-11-21T08:49:10;23.95;;;22.75;;
21505;SDS011;10914;48.886;9.394;2023-11-21T08:51:35;25.45;;;24.10;;
21505;SDS011;10914;48.886;9.394;2023-11-21T08:54:00;28.40;;;26.65;;
21505;SDS011;10914;48.886;9.394;2023-11-21T08:56:29;27.55;;;25.85;;
21505;SDS011;10914;48.886;9.394;2023-11-21T08:58:54;29.73;;;27.83;;
21505;SDS011;10914;48.886;9.394;2023-11-21T09:01:19;31.05;;;29.38;;
21505;SDS011;10914;48.886;9.394;2023-11-21T09:03:46;33.60;;;31.90;;
21505;SDS011;10914;48.886;9.394;2023-11-21T09:06:11;34.15;;;32.42;;
21505;SDS011;10914;48.886;9.394;2023-11-21T09:08:37;33.88;;;32.20;;
21505;SDS011;10914;48.886;9.394;2023-11-21T09:11:02;30.25;;;28.80;;
21505;SDS011;10914;48.886;9.394;2023-11-21T09:13:28;30.77;;;29.25;;
21505;SDS011;10914;48.886;9.394;2023-11-21T09:15:54;39.20;;;36.10;;
21505;SDS011;10914;48.886;9.394;2023-11-21T09:18:20;33.95;;;31.85;;
21505;SDS011;10914;48.886;9.394;2023-11-21T09:20:45;28.90;;;27.30;;
21505;SDS011;10914;48.886;9.394;2023-11-21T09:23:11;27.08;;;25.75;;
21505;SDS011;10914;48.886;9.394;2023-11-21T09:25:36;26.30;;;24.98;;
21505;SDS011;10914;48.886;9.394;2023-11-21T09:28:03;26.27;;;24.88;;
21505;SDS011;10914;48.886;9.394;2023-11-21T09:30:32;26.55;;;25.15;;
21505;SDS011;10914;48.886;9.394;2023-11-21T09:32:58;25.23;;;24.00;;
21505;SDS011;10914;48.886;9.394;2023-11-21T09:35:23;26.00;;;24.50;;
21505;SDS011;10914;48.886;9.394;2023-11-21T09:37:49;25.73;;;24.38;;
21505;SDS011;10914;48.886;9.394;2023-11-21T09:40:15;25.08;;;23.88;;
21505;SDS011;10914;48.886;9.394;2023-11-21T09:43:05;25.70;;;24.23;;
21505;SDS011;10914;48.886;9.394;2023-11-21T09:45:36;32.47;;;30.25;;
21505;SDS011;10914;48.886;9.394;2023-11-21T09:48:03;29.85;;;27.92;;
21505;SDS011;10914;48.886;9.394;2023-11-21T09:50:30;24.65;;;23.38;;
21505;SDS011;10914;48.886;9.394;2023-11-21T09:53:03;24.20;;;23.00;;
21505;SDS011;10914;48.886;9.394;2023-11-21T09:55:30;24.55;;;23.30;;
21505;SDS011;10914;48.886;9.394;2023-11-21T09:58:00;24.15;;;22.95;;
21505;SDS011;10914;48.886;9.394;2023-11-21T10:00:27;23.27;;;22.08;;
21505;SDS011;10914;48.886;9.394;2023-11-21T10:02:52;23.67;;;22.52;;
21505;SDS011;10914;48.886;9.394;2023-11-21T10:05:18;24.02;;;22.92;;
21505;SDS011;10914;48.886;9.394;2023-11-21T10:07:47;24.02;;;22.83;;
21505;SDS011;10914;48.886;9.394;2023-11-21T10:10:13;24.48;;;23.27;;
21505;SDS011;10914;48.886;9.394;2023-11-21T10:12:41;24.50;;;23.30;;
21505;SDS011;10914;48.886;9.394;2023-11-21T10:15:08;24.88;;;23.58;;
21505;SDS011;10914;48.886;9.394;2023-11-21T10:17:35;25.95;;;24.75;;
21505;SDS011;10914;48.886;9.394;2023-11-21T10:20:08;27.63;;;26.30;;
21505;SDS011;10914;48.886;9.394;2023-11-21T10:22:37;27.45;;;26.05;;
21505;SDS011;10914;48.886;9.394;2023-11-21T10:25:03;28.40;;;27.10;;
21505;SDS011;10914;48.886;9.394;2023-11-21T10:27:32;29.30;;;27.90;;
21505;SDS011;10914;48.886;9.394;2023-11-21T10:30:00;29.17;;;27.80;;
21505;SDS011;10914;48.886;9.394;2023-11-21T10:32:29;28.77;;;27.45;;
21505;SDS011;10914;48.886;9.394;2023-11-21T10:34:57;30.85;;;29.25;;
21505;SDS011;10914;48.886;9.394;2023-11-21T10:37:23;31.55;;;30.08;;
21505;SDS011;10914;48.886;9.394;2023-11-21T10:39:48;31.58;;;30.10;;
21505;SDS011;10914;48.886;9.394;2023-11-21T10:42:13;35.45;;;33.83;;
21505;SDS011;10914;48.886;9.394;2023-11-21T10:44:41;35.10;;;33.50;;
21505;SDS011;10914;48.886;9.394;2023-11-21T10:47:06;34.75;;;33.15;;
21505;SDS011;10914;48.886;9.394;2023-11-21T10:49:33;28.55;;;27.17;;
21505;SDS011;10914;48.886;9.394;2023-11-21T10:51:59;26.30;;;25.08;;
21505;SDS011;10914;48.886;9.394;2023-11-21T10:54:24;27.02;;;25.73;;
21505;SDS011;10914;48.886;9.394;2023-11-21T10:56:53;26.65;;;25.38;;
21505;SDS011;10914;48.886;9.394;2023-11-21T10:59:22;28.17;;;26.77;;
21505;SDS011;10914;48.886;9.394;2023-11-21T11:01:50;30.25;;;28.88;;
21505;SDS011;10914;48.886;9.394;2023-11-21T11:04:17;31.98;;;30.48;;
21505;SDS011;10914;48.886;9.394;2023-11-21T11:06:43;32.95;;;31.40;;
21505;SDS011;10914;48.886;9.394;2023-11-21T11:09:10;34.65;;;32.78;;
21505;SDS011;10914;48.886;9.394;2023-11-21T11:11:39;38.85;;;36.55;;
21505;SDS011;10914;48.886;9.394;2023-11-21T11:14:06;38.83;;;36.50;;
21505;SDS011;10914;48.886;9.394;2023-11-21T11:16:31;36.97;;;34.88;;
21505;SDS011;10914;48.886;9.394;2023-11-21T11:18:57;35.95;;;33.88;;
21505;SDS011;10914;48.886;9.394;2023-11-21T11:21:27;33.40;;;31.80;;
21505;SDS011;10914;48.886;9.394;2023-11-21T11:24:04;31.33;;;29.83;;
21505;SDS011;10914;48.886;9.394;2023-11-21T11:26:39;29.67;;;28.30;;
21505;SDS011;10914;48.886;9.394;2023-11-21T11:29:54;27.95;;;26.65;;
21505;SDS011;10914;48.886;9.394;2023-11-21T11:34:41;25.83;;;24.63;;
21505;SDS011;10914;48.886;9.394;2023-11-21T11:37:08;24.63;;;23.52;;
21505;SDS011;10914;48.886;9.394;2023-11-21T11:39:35;24.60;;;23.40;;
21505;SDS011;10914;48.886;9.394;2023-11-21T11:42:02;24.48;;;23.27;;
21505;SDS011;10914;48.886;9.394;2023-11-21T11:47:16;24.50;;;23.40;;
21505;SDS011;10914;48.886;9.394;2023-11-21T11:49:54;24.80;;;23.63;;
21505;SDS011;10914;48.886;9.394;2023-11-21T11:55:08;29.02;;;25.95;;
21505;SDS011;10914;48.886;9.394;2023-11-21T11:57:37;25.65;;;24.33;;
21505;SDS011;10914;48.886;9.394;2023-11-21T12:02:41;23.67;;;22.58;;
21505;SDS011;10914;48.886;9.394;2023-11-21T12:05:08;41.35;;;26.88;;
21505;SDS011;10914;48.886;9.394;2023-11-21T12:07:44;25.90;;;23.85;;
21505;SDS011;10914;48.886;9.394;2023-11-21T12:10:14;24.83;;;23.63;;
21505;SDS011;10914;48.886;9.394;2023-11-21T12:12:43;24.80;;;23.60;;
21505;SDS011;10914;48.886;9.394;2023-11-21T12:15:09;25.05;;;23.85;;
21505;SDS011;10914;48.886;9.394;2023-11-21T12:17:35;25.42;;;24.13;;
21505;SDS011;10914;48.886;9.394;2023-11-21T12:20:04;24.67;;;23.58;;
21505;SDS011;10914;48.886;9.394;2023-11-21T12:22:30;24.73;;;23.52;;
21505;SDS011;10914;48.886;9.394;2023-11-21T12:24:56;24.40;;;23.30;;
21505;SDS011;10914;48.886;9.394;2023-11-21T12:27:21;23.67;;;22.58;;
21505;SDS011;10914;48.886;9.394;2023-11-21T12:29:46;23.60;;;22.50;;
21505;SDS011;10914;48.886;9.394;2023-11-21T12:32:12;22.23;;;21.17;;
21505;SDS011;10914;48.886;9.394;2023-11-21T12:34:40;22.63;;;21.58;;
21505;SDS011;10914;48.886;9.394;2023-11-21T12:37:05;23.05;;;21.95;;
21505;SDS011;10914;48.886;9.394;2023-11-21T12:39:30;25.45;;;23.23;;
21505;SDS011;10914;48.886;9.394;2023-11-21T12:41:56;24.70;;;23.07;;
21505;SDS011;10914;48.886;9.394;2023-11-21T12:44:21;23.25;;;22.15;;
21505;SDS011;10914;48.886;9.394;2023-11-21T12:46:48;23.98;;;22.60;;
21505;SDS011;10914;48.886;9.394;2023-11-21T12:49:14;24.92;;;23.73;;
21505;SDS011;10914;48.886;9.394;2023-11-21T12:51:43;24.15;;;23.02;;
21505;SDS011;10914;48.886;9.394;2023-11-21T12:54:09;26.08;;;24.80;;
21505;SDS011;10914;48.886;9.394;2023-11-21T12:56:38;25.23;;;23.92;;
21505;SDS011;10914;48.886;9.394;2023-11-21T12:59:03;25.50;;;24.25;;
21505;SDS011;10914;48.886;9.394;2023-11-21T13:01:29;24.65;;;23.45;;
21505;SDS011;10914;48.886;9.394;2023-11-21T13:03:57;25.60;;;24.25;;
21505;SDS011;10914;48.886;9.394;2023-11-21T13:06:22;25.17;;;23.88;;
21505;SDS011;10914;48.886;9.394;2023-11-21T13:08:50;25.52;;;24.33;;
21505;SDS011;10914;48.886;9.394;2023-11-21T13:11:15;25.80;;;24.52;;
21505;SDS011;10914;48.886;9.394;2023-11-21T13:13:42;25.60;;;24.30;;
21505;SDS011;10914;48.886;9.394;2023-11-21T13:16:11;26.55;;;25.25;;
21505;SDS011;10914;48.886;9.394;2023-11-21T13:18:36;26.80;;;25.45;;
21505;SDS011;10914;48.886;9.394;2023-11-21T13:21:03;26.58;;;25.17;;
21505;SDS011;10914;48.886;9.394;2023-11-21T13:23:38;26.30;;;24.98;;
21505;SDS011;10914;48.886;9.394;2023-11-21T13:26:03;27.83;;;26.33;;
21505;SDS011;10914;48.886;9.394;2023-11-21T13:28:34;28.33;;;26.83;;
21505;SDS011;10914;48.886;9.394;2023-11-21T13:31:00;28.63;;;27.13;;
21505;SDS011;10914;48.886;9.394;2023-11-21T13:33:34;30.80;;;29.30;;
21505;SDS011;10914;48.886;9.394;2023-11-21T13:36:02;30.33;;;28.83;;
21505;SDS011;10914;48.886;9.394;2023-11-21T13:38:32;31.80;;;30.10;;
21505;SDS011;10914;48.886;9.394;2023-11-21T13:40:58;30.90;;;29.40;;
21505;SDS011;10914;48.886;9.394;2023-11-21T13:43:25;30.77;;;29.27;;
21505;SDS011;10914;48.886;9.394;2023-11-21T13:45:53;32.03;;;30.45;;
21505;SDS011;10914;48.886;9.394;2023-11-21T13:48:28;35.28;;;33.55;;
21505;SDS011;10914;48.886;9.394;2023-11-21T13:50:59;34.88;;;33.13;;
21505;SDS011;10914;48.886;9.394;2023-11-21T13:53:33;32.65;;;31.15;;
21505;SDS011;10914;48.886;9.394;2023-11-21T13:56:01;37.13;;;35.35;;
21505;SDS011;10914;48.886;9.394;2023-11-21T13:58:26;36.95;;;35.22;;
21505;SDS011;10914;48.886;9.394;2023-11-21T14:01:15;34.13;;;32.42;;
21505;SDS011;10914;48.886;9.394;2023-11-21T14:03:59;31.00;;;29.58;;
21505;SDS011;10914;48.886;9.394;2023-11-21T14:06:44;52.38;;;49.97;;
21505;SDS011;10914;48.886;9.394;2023-11-21T14:09:22;31.77;;;30.38;;
21505;SDS011;10914;48.886;9.394;2023-11-21T14:11:50;32.97;;;31.50;;
21505;SDS011;10914;48.886;9.394;2023-11-21T14:14:17;32.97;;;31.48;;
21505;SDS011;10914;48.886;9.394;2023-11-21T14:16:44;32.30;;;30.77;;
21505;SDS011;10914;48.886;9.394;2023-11-21T14:19:10;32.20;;;30.70;;
21505;SDS011;10914;48.886;9.394;2023-11-21T14:21:41;33.55;;;31.88;;
21505;SDS011;10914;48.886;9.394;2023-11-21T14:24:08;32.38;;;30.88;;
21505;SDS011;10914;48.886;9.394;2023-11-21T14:26:34;31.52;;;30.02;;
21505;SDS011;10914;48.886;9.394;2023-11-21T14:29:00;34.65;;;32.95;;